Time;durP1;ratioP1;P1;durP2;ratioP2;P2;SDS_P1;SDS_P2;PMS_P1;PMS_P2;Temp;Humidity;BMP_temperature;BMP_pressure;BME280_temperature;BME280_humidity;BME280_pressure;Samples;Min_cycle;Max_cycle;Signal;HPM_P1;HPM_P2
2024/03/29 00:00:07;;;;;;;32.60;31.20;;;;;;;10.68;100.00;99802.77;105812;1256;74215;-77
2024/03/29 00:02:38;;;;;;;18.90;18.10;;;;;;;10.59;100.00;99803.83;105836;1253;67111;-80
2024/03/29 00:05:07;;;;;;;1.50;1.50;;;;;;;10.51;100.00;99807.60;105845;1254;72729;-77
2024/03/29 00:07:34;;;;;;;7.10;6.70;;;;;;;10.44;100.00;99805.84;105873;1258;62146;-77
2024/03/29 00:10:02;;;;;;;0.20;0.20;;;;;;;10.38;100.00;99808.45;106391;1256;62063;-77
2024/03/29 00:12:30;;;;;;;1.70;1.60;;;;;;;10.35;100.00;99810.06;106017;1254;75480;-80
2024/03/29 00:14:58;;;;;;;0.10;0.10;;;;;;;10.31;100.00;99812.73;106061;1256;67479;-77
2024/03/29 00:17:25;;;;;;;0.80;0.80;;;;;;;10.30;100.00;99811.92;106055;1253;71352;-77
2024/03/29 00:19:53;;;;;;;35.80;5.90;;;;;;;10.29;100.00;99816.75;105895;1258;62037;-80
2024/03/29 00:22:20;;;;;;;0.00;0.00;;;;;;;10.34;100.00;99823.12;105912;1252;60162;-77
2024/03/29 00:24:48;;;;;;;0.20;0.20;;;;;;;10.33;100.00;99820.89;106067;1256;75467;-80
2024/03/29 00:27:15;;;;;;;7.20;3.50;;;;;;;10.31;100.00;99816.83;105934;1254;68721;-77
2024/03/29 00:29:46;;;;;;;0.40;0.40;;;;;;;10.30;100.00;99823.23;107223;1253;71495;-81
2024/03/29 00:32:13;;;;;;;2.20;1.50;;;;;;;10.32;100.00;99817.69;105927;1254;62175;-80
2024/03/29 00:34:41;;;;;;;1.60;1.50;;;;;;;10.32;100.00;99816.98;105996;1258;61980;-80
2024/03/29 00:37:09;;;;;;;1.90;1.70;;;;;;;10.28;100.00;99821.55;106042;1254;74219;-79
2024/03/29 00:39:36;;;;;;;0.40;0.40;;;;;;;10.24;100.00;99818.38;106069;1259;67250;-80
2024/03/29 00:42:08;;;;;;;0.70;0.70;;;;;;;10.22;100.00;99811.07;105775;1258;72646;-76
2024/03/29 00:44:37;;;;;;;0.10;0.10;;;;;;;10.17;100.00;99813.36;105872;1254;62065;-80
2024/03/29 00:47:05;;;;;;;0.10;0.10;;;;;;;10.14;100.00;99812.36;105811;1254;61968;-79
2024/03/29 00:49:33;;;;;;;0.20;0.20;;;;;;;10.13;100.00;99816.21;105826;1259;74463;-77
2024/03/29 00:52:02;;;;;;;0.40;0.40;;;;;;;10.12;100.00;99816.21;105814;1259;67215;-77
2024/03/29 00:54:30;;;;;;;0.00;0.00;;;;;;;10.07;100.00;99820.48;105817;1253;71429;-80
2024/03/29 00:56:57;;;;;;;0.30;0.30;;;;;;;10.02;100.00;99821.47;105905;1257;62159;-80
2024/03/29 00:59:25;;;;;;;0.90;0.70;;;;;;;9.97;100.00;99818.79;107384;1253;62041;-80
2024/03/29 01:01:53;;;;;;;3.40;2.00;;;;;;;9.96;100.00;99822.47;107890;1258;74172;-81
2024/03/29 01:04:21;;;;;;;0.60;0.60;;;;;;;9.95;100.00;99827.11;106608;1253;67121;-77
2024/03/29 01:06:48;;;;;;;0.60;0.60;;;;;;;9.93;100.00;99826.05;105940;1253;71669;-77
2024/03/29 01:09:16;;;;;;;0.50;0.50;;;;;;;9.93;100.00;99825.11;105919;1254;62144;-80
2024/03/29 01:11:43;;;;;;;0.30;0.30;;;;;;;9.92;100.00;99826.45;105849;1256;61136;-80
2024/03/29 01:14:11;;;;;;;1.70;0.60;;;;;;;9.89;100.00;99825.27;106151;1254;75391;-80
2024/03/29 01:16:38;;;;;;;0.90;0.90;;;;;;;9.86;100.00;99826.50;105845;1258;67572;-80
2024/03/29 01:19:10;;;;;;;0.00;0.00;;;;;;;9.80;100.00;99827.56;105923;1252;71338;-81
2024/03/29 01:21:37;;;;;;;1.10;0.60;;;;;;;9.77;100.00;99828.52;105803;1254;62031;-81
2024/03/29 01:24:05;;;;;;;0.90;0.90;;;;;;;9.75;100.00;99823.95;105882;1254;62841;-80
2024/03/29 01:26:32;;;;;;;0.40;0.40;;;;;;;9.74;100.00;99820.36;105978;1254;74068;-77
2024/03/29 01:29:00;;;;;;;0.40;0.40;;;;;;;9.69;100.00;99816.87;104920;1254;2138427;-81
2024/03/29 01:31:28;;;;;;;0.20;0.20;;;;;;;9.68;100.00;99826.37;105893;1259;70099;-77
2024/03/29 01:33:57;;;;;;;0.20;0.20;;;;;;;9.67;100.00;99826.81;105893;1256;62852;-77
2024/03/29 01:36:25;;;;;;;0.40;0.30;;;;;;;9.63;100.00;99827.14;106025;1259;62194;-77
2024/03/29 01:38:56;;;;;;;5.70;2.90;;;;;;;9.60;100.00;99825.57;106059;1254;74508;-77
2024/03/29 01:41:26;;;;;;;0.00;0.00;;;;;;;9.57;100.00;99829.98;106048;1259;67078;-80
2024/03/29 01:43:54;;;;;;;0.00;0.00;;;;;;;9.53;100.00;99829.96;105968;1254;72736;-77
2024/03/29 01:46:25;;;;;;;0.10;0.10;;;;;;;9.52;100.00;99833.68;105991;1256;62122;-80
2024/03/29 01:48:53;;;;;;;0.10;0.10;;;;;;;9.47;100.00;99837.49;105871;1255;62101;-80
2024/03/29 01:51:22;;;;;;;2.90;1.50;;;;;;;9.44;100.00;99835.06;106742;1253;75437;-77
2024/03/29 01:53:50;;;;;;;2.10;1.30;;;;;;;9.42;100.00;99837.41;105933;1254;67689;-77
2024/03/29 01:56:18;;;;;;;0.20;0.20;;;;;;;9.38;100.00;99835.11;105957;1258;72677;-78
2024/03/29 01:58:45;;;;;;;0.30;0.30;;;;;;;9.33;100.00;99835.21;106165;1257;62028;-81
2024/03/29 02:01:13;;;;;;;0.00;0.00;;;;;;;9.30;100.00;99838.29;106090;1256;62123;-81
2024/03/29 02:03:40;;;;;;;0.70;0.70;;;;;;;9.28;100.00;99834.27;105996;1252;74447;-80
2024/03/29 02:06:10;;;;;;;2.30;2.20;;;;;;;9.24;100.00;99837.63;105853;1254;67142;-80
2024/03/29 02:08:37;;;;;;;0.10;0.10;;;;;;;9.21;100.00;99842.71;105813;1258;71941;-80
2024/03/29 02:11:05;;;;;;;2.60;2.40;;;;;;;9.17;100.00;99845.70;105794;1254;62180;-77
2024/03/29 02:13:33;;;;;;;0.40;0.40;;;;;;;9.14;100.00;99846.81;105909;1254;62194;-80
2024/03/29 02:16:00;;;;;;;2.30;1.80;;;;;;;9.16;100.00;99846.30;105962;1254;76367;-77
2024/03/29 02:18:28;;;;;;;0.70;0.70;;;;;;;9.18;100.00;99850.00;106911;1258;68418;-81
2024/03/29 02:20:56;;;;;;;0.90;0.90;;;;;;;9.18;100.00;99853.58;105950;1258;71452;-80
2024/03/29 02:23:26;;;;;;;0.10;0.10;;;;;;;9.17;100.00;99858.90;106005;1259;62069;-79
2024/03/29 02:25:55;;;;;;;0.00;0.00;;;;;;;9.14;100.00;99857.38;106065;1256;61954;-80
2024/03/29 02:28:22;;;;;;;1.50;1.40;;;;;;;9.10;100.00;99856.21;106084;1258;74475;-77
2024/03/29 02:30:50;;;;;;;4.00;3.70;;;;;;;9.08;100.00;99857.21;105624;1254;68358;-80
2024/03/29 02:33:18;;;;;;;0.70;0.50;;;;;;;9.05;100.00;99853.30;105788;1254;72408;-80
2024/03/29 02:35:45;;;;;;;0.30;0.30;;;;;;;9.08;100.00;99855.96;105973;1259;62141;-81
2024/03/29 02:38:13;;;;;;;0.20;0.20;;;;;;;9.03;100.00;99853.27;106070;1254;62101;-77
2024/03/29 02:40:40;;;;;;;0.40;0.40;;;;;;;9.04;100.00;99850.20;105945;1253;75518;-77
2024/03/29 02:43:08;;;;;;;0.00;0.00;;;;;;;9.05;100.00;99848.85;106814;1256;68490;-77
2024/03/29 02:45:36;;;;;;;2.90;2.70;;;;;;;9.05;100.00;99850.42;105987;1254;71410;-77
2024/03/29 02:48:03;;;;;;;0.70;0.70;;;;;;;9.04;100.00;99851.35;105949;1255;62245;-80
2024/03/29 02:50:31;;;;;;;0.30;0.30;;;;;;;9.01;100.00;99855.79;106075;1254;62245;-80
2024/03/29 02:52:59;;;;;;;0.50;0.50;;;;;;;8.99;100.00;99855.02;106049;1254;74166;-81
2024/03/29 02:55:26;;;;;;;0.40;0.40;;;;;;;8.99;100.00;99856.46;106111;1256;68704;-78
2024/03/29 02:57:54;;;;;;;0.00;0.00;;;;;;;8.96;100.00;99859.80;106038;1259;72640;-80
2024/03/29 03:00:21;;;;;;;1.10;1.00;;;;;;;8.92;100.00;99857.55;105978;1254;62230;-81
2024/03/29 03:02:49;;;;;;;0.10;0.10;;;;;;;8.91;100.00;99861.14;106634;1254;61976;-80
2024/03/29 03:05:17;;;;;;;0.10;0.10;;;;;;;8.88;100.00;99860.14;105891;1259;75471;-77
2024/03/29 03:13:17;;;;;;;9.20;2.80;;;;;;;8.79;100.00;99858.88;105924;1254;62139;-81
2024/03/29 03:15:45;;;;;;;0.10;0.10;;;;;;;8.79;100.00;99860.84;105910;1254;62069;-77
2024/03/29 03:18:12;;;;;;;0.10;0.10;;;;;;;8.77;100.00;99861.94;105931;1256;74343;-81
2024/03/29 03:20:40;;;;;;;0.90;0.90;;;;;;;8.75;100.00;99863.42;105851;1254;68427;-81
2024/03/29 03:23:08;;;;;;;0.60;0.60;;;;;;;8.75;100.00;99864.89;108165;1259;72731;-77
2024/03/29 03:25:36;;;;;;;0.90;0.90;;;;;;;8.75;100.00;99868.55;105898;1254;62054;-77
2024/03/29 03:28:03;;;;;;;0.00;0.00;;;;;;;8.80;100.00;99875.05;106111;1254;61986;-77
2024/03/29 03:30:31;;;;;;;0.00;0.00;;;;;;;8.78;100.00;99875.94;106010;1259;75374;-76
2024/03/29 03:32:59;;;;;;;0.60;0.60;;;;;;;8.72;100.00;99877.98;105896;1260;68431;-78
2024/03/29 03:35:26;;;;;;;0.00;0.00;;;;;;;8.70;100.00;99877.02;105857;1254;72703;-77
2024/03/29 03:37:56;;;;;;;0.20;0.20;;;;;;;8.68;100.00;99880.73;106133;1254;62245;-76
2024/03/29 03:40:24;;;;;;;0.10;0.10;;;;;;;8.68;100.00;99878.07;106048;1256;61912;-77
2024/03/29 03:42:51;;;;;;;1.30;1.30;;;;;;;8.65;100.00;99886.42;105924;1259;75438;-77
2024/03/29 03:45:19;;;;;;;0.90;0.40;;;;;;;8.63;100.00;99887.73;105753;1254;68445;-80
2024/03/29 03:47:47;;;;;;;0.40;0.40;;;;;;;8.65;100.00;99885.77;106901;1254;71540;-77
2024/03/29 03:50:14;;;;;;;0.10;0.10;;;;;;;8.68;100.00;99889.45;105842;1259;62091;-80
2024/03/29 03:52:42;;;;;;;0.10;0.10;;;;;;;8.72;100.00;99886.87;106079;1257;62051;-81
2024/03/29 03:55:10;;;;;;;0.40;0.40;;;;;;;8.74;100.00;99882.06;105973;1253;74147;-77
2024/03/29 03:57:37;;;;;;;2.20;1.20;;;;;;;8.74;100.00;99877.76;105875;1254;68500;-77
2024/03/29 04:00:06;;;;;;;0.10;0.10;;;;;;;8.82;100.00;99877.23;105907;1254;75021;-77
2024/03/29 04:02:38;;;;;;;1.10;1.10;;;;;;;8.84;100.00;99875.20;105916;1259;62080;-80
2024/03/29 04:05:07;;;;;;;0.80;0.50;;;;;;;8.86;100.00;99873.45;106145;1256;62089;-81
2024/03/29 04:07:34;;;;;;;0.20;0.20;;;;;;;8.91;100.00;99868.57;106070;1254;75501;-77
2024/03/29 04:10:03;;;;;;;0.00;0.00;;;;;;;8.95;100.00;99870.39;106771;1253;68746;-81
2024/03/29 04:12:31;;;;;;;0.20;0.20;;;;;;;9.00;100.00;99865.34;107156;1256;71446;-77
2024/03/29 04:14:58;;;;;;;0.10;0.10;;;;;;;9.04;100.00;99862.80;107251;1254;62267;-77
2024/03/29 04:17:26;;;;;;;0.70;0.70;;;;;;;9.06;100.00;99865.02;106002;1253;62117;-77
2024/03/29 04:19:54;;;;;;;0.90;0.90;;;;;;;9.15;100.00;99866.48;105992;1254;75511;-77
2024/03/29 04:22:21;;;;;;;0.00;0.00;;;;;;;9.17;100.00;99869.52;105953;1259;66480;-77
2024/03/29 04:24:49;;;;;;;1.50;0.30;;;;;;;9.25;100.00;99868.48;105932;1256;71469;-77
2024/03/29 04:27:17;;;;;;;9.50;1.50;;;;;;;9.35;100.00;99870.21;105897;1254;62139;-77
2024/03/29 04:29:44;;;;;;;1.50;1.40;;;;;;;9.41;100.00;99874.46;105845;1254;62088;-77
2024/03/29 04:32:12;;;;;;;0.00;0.00;;;;;;;9.51;100.00;99869.41;105757;1254;74608;-80
2024/03/29 04:34:39;;;;;;;0.10;0.10;;;;;;;9.58;100.00;99865.32;105742;1253;68399;-80
2024/03/29 04:37:07;;;;;;;1.80;1.10;;;;;;;9.69;100.00;99864.88;106006;1254;72691;-81
2024/03/29 04:39:34;;;;;;;1.30;0.50;;;;;;;9.76;100.00;99862.84;106006;1260;62053;-80
2024/03/29 04:42:02;;;;;;;6.90;0.80;;;;;;;9.81;100.00;99867.55;106804;1255;62130;-80
2024/03/29 04:44:30;;;;;;;0.40;0.30;;;;;;;9.86;100.00;99864.38;105902;1254;74411;-81
2024/03/29 04:46:58;;;;;;;1.90;1.80;;;;;;;9.94;100.00;99864.58;105811;1255;69329;-77
2024/03/29 04:49:33;;;;;;;0.00;0.00;;;;;;;10.00;100.00;99864.52;105937;1254;71490;-81
2024/03/29 04:52:01;;;;;;;0.10;0.10;;;;;;;10.08;100.00;99863.83;105890;1259;62146;-81
2024/03/29 04:54:28;;;;;;;0.60;0.60;;;;;;;10.15;100.00;99864.67;105824;1254;61922;-77
2024/03/29 04:56:56;;;;;;;0.40;0.40;;;;;;;10.21;100.00;99865.79;105866;1259;76411;-77
2024/03/29 04:59:23;;;;;;;0.10;0.10;;;;;;;10.26;100.00;99869.73;106524;1253;67114;-78
2024/03/29 05:01:53;;;;;;;36.50;7.50;;;;;;;10.32;100.00;99868.48;106006;1259;71213;-77
2024/03/29 05:04:25;;;;;;;4.70;4.20;;;;;;;10.41;100.00;99870.02;105926;1259;62220;-81
2024/03/29 05:06:53;;;;;;;0.70;0.70;;;;;;;10.45;100.00;99867.56;105949;1259;62148;-80
2024/03/29 05:09:21;;;;;;;0.40;0.40;;;;;;;10.50;100.00;99866.68;105945;1253;74426;-81
2024/03/29 05:11:48;;;;;;;0.80;0.80;;;;;;;10.60;100.00;99867.31;105992;1254;68448;-77
2024/03/29 05:14:18;;;;;;;1.60;1.50;;;;;;;10.66;100.00;99873.63;105943;1254;72662;-81
2024/03/29 05:16:46;;;;;;;6.20;1.20;;;;;;;10.77;100.00;99872.55;106118;1253;62179;-80
2024/03/29 05:19:14;;;;;;;0.10;0.10;;;;;;;10.81;100.00;99876.33;105862;1259;62162;-82
2024/03/29 05:21:42;;;;;;;1.10;1.10;;;;;;;10.87;100.00;99874.75;105985;1257;74765;-77
2024/03/29 05:24:09;;;;;;;0.20;0.20;;;;;;;10.93;100.00;99876.20;106708;1254;68684;-81
2024/03/29 05:26:37;;;;;;;0.10;0.10;;;;;;;10.98;100.00;99874.60;105968;1256;71357;-81
2024/03/29 05:29:05;;;;;;;3.10;1.50;;;;;;;11.04;100.00;99868.67;105953;1254;62104;-81
2024/03/29 05:31:32;;;;;;;0.20;0.20;;;;;;;11.04;100.00;99867.62;105877;1254;62169;-77
2024/03/29 05:34:00;;;;;;;0.00;0.00;;;;;;;11.07;100.00;99868.29;105840;1257;75771;-80
2024/03/29 05:36:28;;;;;;;1.50;1.50;;;;;;;11.14;100.00;99873.64;105787;1258;66288;-81
2024/03/29 05:38:55;;;;;;;0.40;0.40;;;;;;;11.21;100.00;99876.05;105862;1257;72619;-77
2024/03/29 05:41:23;;;;;;;0.50;0.30;;;;;;;11.28;100.00;99875.84;105783;1259;62178;-80
2024/03/29 05:43:51;;;;;;;0.20;0.20;;;;;;;11.35;100.00;99873.48;105819;1259;62040;-80
2024/03/29 05:46:18;;;;;;;10.20;0.40;;;;;;;11.38;100.00;99876.23;105843;1259;75468;-77
2024/03/29 05:48:46;;;;;;;0.00;0.00;;;;;;;11.40;100.00;99872.41;107343;1253;68779;-81
2024/03/29 05:51:14;;;;;;;0.00;0.00;;;;;;;11.47;100.00;99874.00;106708;1255;72648;-77
2024/03/29 05:53:41;;;;;;;1.20;1.20;;;;;;;11.50;100.00;99873.23;105914;1258;62154;-80
2024/03/29 05:56:09;;;;;;;0.20;0.20;;;;;;;11.55;100.00;99870.95;106050;1254;62120;-81
2024/03/29 05:58:37;;;;;;;0.30;0.30;;;;;;;11.63;100.00;99872.95;105946;1260;74496;-77
2024/03/29 06:01:04;;;;;;;3.20;2.60;;;;;;;11.71;100.00;99874.97;105852;1254;66149;-77
2024/03/29 06:03:32;;;;;;;1.30;0.70;;;;;;;11.73;100.00;99875.19;105980;1256;72692;-77
2024/03/29 06:06:00;;;;;;;6.10;4.50;;;;;;;11.74;100.00;99877.10;105897;1254;62101;-81
2024/03/29 06:08:27;;;;;;;0.60;0.40;;;;;;;11.75;100.00;99874.73;105940;1256;62124;-81
2024/03/29 06:10:55;;;;;;;0.00;0.00;;;;;;;11.75;100.00;99873.73;105840;1259;75383;-81
2024/03/29 06:19:03;;;;;;;0.40;0.40;;;;;;;11.96;100.00;99867.34;105942;1254;62140;-77
2024/03/29 06:21:38;;;;;;;1.00;1.00;;;;;;;11.98;100.00;99866.38;105906;1253;62171;-80
2024/03/29 06:24:07;;;;;;;1.20;1.20;;;;;;;12.04;100.00;99866.05;105839;1260;75454;-80
2024/03/29 06:26:34;;;;;;;0.20;0.20;;;;;;;12.14;100.00;99867.08;105890;1259;68511;-77
2024/03/29 06:29:02;;;;;;;0.30;0.30;;;;;;;12.23;100.00;99862.01;105945;1258;71709;-77
2024/03/29 06:31:30;;;;;;;3.10;2.10;;;;;;;12.32;100.00;99852.23;105759;1258;62172;-76
2024/03/29 06:33:57;;;;;;;2.60;0.80;;;;;;;12.40;100.00;99852.85;105778;1259;62155;-80
2024/03/29 06:36:25;;;;;;;0.50;0.50;;;;;;;12.49;100.00;99851.27;105690;1254;75428;-80
2024/03/29 06:38:54;;;;;;;1.90;1.70;;;;;;;12.57;100.00;99847.23;105845;1254;69758;-80
2024/03/29 06:41:22;;;;;;;0.20;0.20;;;;;;;12.60;100.00;99847.27;105845;1258;74079;-81
2024/03/29 06:43:50;;;;;;;1.20;1.10;;;;;;;12.69;100.00;99848.33;106277;1254;62233;-81
2024/03/29 06:46:17;;;;;;;0.20;0.20;;;;;;;12.77;100.00;99838.89;106026;1254;62161;-80
2024/03/29 06:48:45;;;;;;;9.10;0.70;;;;;;;12.88;100.00;99836.81;106077;1259;76963;-80
2024/03/29 06:51:13;;;;;;;1.90;1.80;;;;;;;12.98;100.00;99834.97;106013;1258;70508;-80
2024/03/29 06:53:41;;;;;;;0.50;0.50;;;;;;;13.01;100.00;99837.19;105833;1257;74109;-80
2024/03/29 06:56:08;;;;;;;0.20;0.20;;;;;;;13.08;100.00;99832.17;105870;1256;62239;-80
2024/03/29 06:58:37;;;;;;;0.20;0.20;;;;;;;13.14;100.00;99833.88;106520;1258;62051;-80
2024/03/29 07:01:11;;;;;;;0.30;0.30;;;;;;;13.20;100.00;99826.48;106246;1254;74272;-77
2024/03/29 07:03:40;;;;;;;2.70;2.50;;;;;;;13.24;100.00;99821.81;105931;1256;68732;-77
2024/03/29 07:06:07;;;;;;;0.40;0.40;;;;;;;13.29;100.00;99818.97;105997;1260;75075;-77
2024/03/29 07:08:35;;;;;;;0.40;0.40;;;;;;;13.35;100.00;99809.50;105760;1268;62030;-76
2024/03/29 07:11:03;;;;;;;0.30;0.30;;;;;;;13.36;100.00;99806.84;105737;1254;62088;-76
2024/03/29 07:13:33;;;;;;;5.20;2.50;;;;;;;13.36;100.00;99810.26;105679;1254;76488;-76
2024/03/29 07:16:00;;;;;;;0.10;0.10;;;;;;;13.32;100.00;99813.52;106370;1259;69993;-77
2024/03/29 07:18:29;;;;;;;2.90;2.30;;;;;;;13.33;100.00;99816.56;105926;1260;74775;-77
2024/03/29 07:20:56;;;;;;;0.80;0.80;;;;;;;13.28;100.00;99818.77;105974;1259;62062;-78
2024/03/29 07:23:24;;;;;;;0.30;0.30;;;;;;;13.26;100.00;99818.60;105988;1254;62090;-77
2024/03/29 07:26:02;;;;;;;3.50;3.00;;;;;;;13.25;100.00;99840.67;106018;1254;74764;-77
2024/03/29 07:28:31;;;;;;;0.60;0.60;;;;;;;13.27;100.00;99864.67;105883;1258;70663;-77
2024/03/29 07:31:06;;;;;;;0.70;0.60;;;;;;;13.34;100.00;99870.62;105957;1258;72676;-80
2024/03/29 07:33:34;;;;;;;4.60;0.80;;;;;;;13.41;100.00;99878.83;106184;1258;62003;-81
2024/03/29 07:36:02;;;;;;;0.40;0.40;;;;;;;13.46;100.00;99874.88;105931;1260;62614;-77
2024/03/29 07:38:30;;;;;;;0.20;0.20;;;;;;;13.58;100.00;99863.70;106236;1257;75779;-77
2024/03/29 07:40:57;;;;;;;0.80;0.80;;;;;;;13.73;100.00;99868.54;105995;1261;67152;-80
2024/03/29 07:43:25;;;;;;;1.80;1.70;;;;;;;13.92;100.00;99863.24;105974;1254;73578;-78
2024/03/29 07:45:53;;;;;;;3.40;1.60;;;;;;;14.07;100.00;99866.58;105916;1260;62171;-78
2024/03/29 07:48:21;;;;;;;0.30;0.30;;;;;;;14.18;100.00;99865.23;106023;1254;62813;-81
2024/03/29 07:50:48;;;;;;;0.20;0.20;;;;;;;14.29;100.00;99862.52;105789;1261;75425;-80
2024/03/29 07:53:16;;;;;;;1.50;1.40;;;;;;;14.29;100.00;99860.36;106048;1260;69818;-78
2024/03/29 07:55:44;;;;;;;0.40;0.40;;;;;;;14.37;100.00;99855.02;105993;1254;74687;-81
2024/03/29 07:58:12;;;;;;;0.00;0.00;;;;;;;14.46;100.00;99851.30;106204;1254;62196;-77
2024/03/29 08:00:42;;;;;;;0.50;0.50;;;;;;;14.55;100.00;99846.11;105824;1256;62116;-81
2024/03/29 08:03:10;;;;;;;0.20;0.20;;;;;;;14.63;100.00;99836.56;106025;1253;74240;-81
2024/03/29 08:05:38;;;;;;;0.30;0.30;;;;;;;14.75;100.00;99835.05;106032;1259;71024;-81
2024/03/29 08:08:05;;;;;;;0.10;0.10;;;;;;;14.88;100.00;99834.45;106031;1254;74303;-78
2024/03/29 08:10:34;;;;;;;3.30;1.30;;;;;;;14.97;100.00;99839.11;105940;1254;62072;-80
2024/03/29 08:13:02;;;;;;;0.30;0.30;;;;;;;15.06;100.00;99829.70;105988;1267;61974;-77
2024/03/29 08:15:29;;;;;;;1.50;1.30;;;;;;;15.13;100.00;99818.74;105841;1255;77763;-77
2024/03/29 08:17:57;;;;;;;0.00;0.00;;;;;;;15.17;100.00;99802.50;105975;1262;70752;-77
2024/03/29 08:20:29;;;;;;;0.20;0.20;;;;;;;15.18;100.00;99808.28;105949;1259;75096;-77
2024/03/29 08:22:59;;;;;;;1.20;1.10;;;;;;;15.22;100.00;99806.73;105942;1257;62527;-77
2024/03/29 08:25:31;;;;;;;0.00;0.00;;;;;;;15.18;100.00;99799.09;105855;1254;62941;-80
2024/03/29 08:27:58;;;;;;;0.00;0.00;;;;;;;15.22;100.00;99794.87;105834;1258;77855;-80
2024/03/29 08:30:26;;;;;;;1.00;1.00;;;;;;;15.28;100.00;99801.11;105915;1260;67122;-80
2024/03/29 08:32:54;;;;;;;0.60;0.60;;;;;;;15.39;100.00;99809.60;105951;1254;71115;-80
2024/03/29 08:35:22;;;;;;;0.10;0.10;;;;;;;15.41;100.00;99824.11;106062;1254;62085;-77
2024/03/29 08:37:50;;;;;;;1.20;0.90;;;;;;;15.37;100.00;99828.23;105857;1261;62127;-77
2024/03/29 08:40:18;;;;;;;6.40;2.50;;;;;;;15.26;100.00;99832.78;105951;1253;76719;-81
2024/03/29 08:42:45;;;;;;;0.00;0.00;;;;;;;15.17;100.00;99837.09;105995;1254;67089;-81
2024/03/29 08:45:13;;;;;;;0.60;0.60;;;;;;;15.04;100.00;99838.80;105855;1259;73519;-77
2024/03/29 08:47:41;;;;;;;0.00;0.00;;;;;;;14.93;100.00;99838.16;105879;1254;62265;-77
2024/03/29 08:50:09;;;;;;;0.10;0.10;;;;;;;14.79;100.00;99840.11;106033;1260;61944;-81
2024/03/29 08:52:38;;;;;;;1.50;1.20;;;;;;;14.57;100.00;99829.20;105899;1255;78065;-81
2024/03/29 08:55:07;;;;;;;0.20;0.20;;;;;;;14.42;100.00;99818.25;105821;1259;71429;-78
2024/03/29 08:57:34;;;;;;;0.10;0.10;;;;;;;14.35;100.00;99808.86;106012;1255;74714;-77
2024/03/29 09:00:03;;;;;;;0.00;0.00;;;;;;;14.31;100.00;99811.50;105785;1258;62058;-81
2024/03/29 09:02:31;;;;;;;0.30;0.30;;;;;;;14.25;100.00;99808.09;105734;1260;62111;-81
2024/03/29 09:04:58;;;;;;;2.00;1.80;;;;;;;14.26;100.00;99807.52;105886;1254;77490;-77
2024/03/29 09:07:26;;;;;;;0.00;0.00;;;;;;;14.31;100.00;99802.71;106006;1260;71206;-80
2024/03/29 09:09:54;;;;;;;0.50;0.50;;;;;;;14.25;100.00;99798.14;105735;1260;74763;-80
2024/03/29 09:12:21;;;;;;;0.00;0.00;;;;;;;14.31;100.00;99792.49;105922;1258;62271;-77
2024/03/29 09:14:50;;;;;;;0.30;0.30;;;;;;;14.33;100.00;99790.17;106121;1254;61964;-81
2024/03/29 09:17:19;;;;;;;1.10;1.00;;;;;;;14.28;100.00;99781.25;105959;1254;77506;-81
2024/03/29 09:19:46;;;;;;;0.60;0.60;;;;;;;14.26;100.00;99770.48;106024;1259;69692;-78
2024/03/29 09:22:14;;;;;;;0.20;0.20;;;;;;;14.18;100.00;99759.98;105886;1260;75317;-77
2024/03/29 09:24:42;;;;;;;0.90;0.90;;;;;;;14.18;100.00;99756.04;105952;1254;62594;-77
2024/03/29 09:27:10;;;;;;;2.10;1.90;;;;;;;14.24;100.00;99745.05;105858;1254;61935;-77
2024/03/29 09:29:37;;;;;;;0.00;0.00;;;;;;;14.36;100.00;99739.77;105891;1254;77593;-77
2024/03/29 09:32:05;;;;;;;0.10;0.10;;;;;;;14.55;100.00;99744.25;105877;1257;69435;-77
2024/03/29 09:34:37;;;;;;;0.00;0.00;;;;;;;14.73;100.00;99742.33;106015;1254;74903;-81
2024/03/29 09:37:05;;;;;;;0.50;0.50;;;;;;;14.75;100.00;99735.83;106674;1255;64168;-81
2024/03/29 09:39:33;;;;;;;0.20;0.20;;;;;;;14.77;100.00;99733.92;107725;1254;61976;-78
2024/03/29 09:42:01;;;;;;;0.00;0.00;;;;;;;14.73;100.00;99733.54;106949;1259;76337;-77
2024/03/29 09:44:32;;;;;;;0.50;0.50;;;;;;;14.67;100.00;99734.89;105952;1261;68509;-77
2024/03/29 09:47:04;;;;;;;0.00;0.00;;;;;;;14.61;100.00;99746.35;107586;1254;74521;-77
2024/03/29 09:49:32;;;;;;;0.00;0.00;;;;;;;14.65;100.00;99746.58;106326;1253;63753;-77
2024/03/29 09:52:06;;;;;;;0.10;0.10;;;;;;;14.62;100.00;99755.34;106060;1258;62255;-80
2024/03/29 09:54:34;;;;;;;0.00;0.00;;;;;;;14.66;100.00;99764.23;105974;1253;76268;-77
2024/03/29 09:57:02;;;;;;;6.40;2.30;;;;;;;14.74;100.00;99777.63;106175;1257;70864;-81
2024/03/29 09:59:29;;;;;;;0.20;0.20;;;;;;;14.74;100.00;99783.23;105988;1262;73939;-81
2024/03/29 10:01:57;;;;;;;0.00;0.00;;;;;;;14.73;100.00;99783.15;105934;1254;64313;-81
2024/03/29 10:04:25;;;;;;;0.10;0.10;;;;;;;14.74;100.00;99786.05;106382;1254;60196;-81
2024/03/29 10:06:53;;;;;;;0.20;0.20;;;;;;;14.77;100.00;99785.48;105893;1255;77773;-78
2024/03/29 10:09:22;;;;;;;0.10;0.10;;;;;;;14.78;100.00;99782.77;105847;1254;69927;-77
2024/03/29 10:11:49;;;;;;;0.10;0.10;;;;;;;14.75;100.00;99772.52;106067;1257;72850;-77
2024/03/29 10:14:17;;;;;;;0.20;0.20;;;;;;;14.74;100.00;99757.23;106026;1254;62841;-79
2024/03/29 10:16:45;;;;;;;0.00;0.00;;;;;;;14.72;100.00;99749.42;105972;1260;61999;-78
2024/03/29 10:19:13;;;;;;;0.00;0.00;;;;;;;14.68;100.00;99744.50;105965;1257;76479;-81
2024/03/29 10:21:40;;;;;;;0.10;0.10;;;;;;;14.63;100.00;99741.66;105845;1255;69488;-81
2024/03/29 10:24:16;;;;;;;0.00;0.00;;;;;;;14.63;100.00;99730.73;105948;1254;72347;-81
2024/03/29 10:26:44;;;;;;;1.10;1.10;;;;;;;14.59;100.00;99735.24;105900;1260;62833;-78
2024/03/29 10:29:12;;;;;;;0.20;0.20;;;;;;;14.53;100.00;99736.86;105889;1258;62069;-81
2024/03/29 10:31:39;;;;;;;0.10;0.10;;;;;;;14.67;100.00;99737.80;106047;1254;76686;-81
2024/03/29 10:34:08;;;;;;;0.10;0.10;;;;;;;14.62;100.00;99732.23;106067;1253;68927;-81
2024/03/29 10:36:36;;;;;;;4.00;0.80;;;;;;;14.76;100.00;99729.02;105964;1254;75315;-77
2024/03/29 10:39:12;;;;;;;0.00;0.00;;;;;;;14.81;100.00;99720.08;105895;1254;62040;-77
2024/03/29 10:41:40;;;;;;;1.60;1.40;;;;;;;14.89;100.00;99716.63;106019;1253;62227;-81
2024/03/29 10:44:17;;;;;;;0.20;0.20;;;;;;;15.06;100.00;99710.39;105974;1257;76864;-81
2024/03/29 10:46:47;;;;;;;0.00;0.00;;;;;;;15.17;100.00;99705.40;106059;1259;70804;-81
2024/03/29 10:49:16;;;;;;;0.50;0.50;;;;;;;15.40;100.00;99703.70;105835;1259;75058;-81
2024/03/29 10:51:44;;;;;;;0.10;0.10;;;;;;;15.61;100.00;99700.39;105934;1257;62050;-78
2024/03/29 10:54:12;;;;;;;3.10;1.20;;;;;;;15.88;100.00;99705.13;105942;1254;62344;-81
2024/03/29 10:56:44;;;;;;;0.70;0.70;;;;;;;16.06;100.00;99705.51;105883;1254;76774;-81
2024/03/29 10:59:18;;;;;;;0.30;0.30;;;;;;;16.14;100.00;99701.27;105973;1255;70081;-81
2024/03/29 11:01:49;;;;;;;0.00;0.00;;;;;;;16.19;100.00;99697.90;106154;1254;73733;-78
2024/03/29 11:04:29;;;;;;;0.00;0.00;;;;;;;16.22;100.00;99690.12;106026;1257;64404;-77
2024/03/29 11:06:58;;;;;;;0.00;0.00;;;;;;;16.24;100.00;99694.94;105857;1254;62108;-81
2024/03/29 11:09:29;;;;;;;0.00;0.00;;;;;;;16.29;100.00;99682.45;106235;1254;76983;-81
2024/03/29 11:11:56;;;;;;;0.00;0.00;;;;;;;16.34;100.00;99680.90;105924;1257;70770;-78
2024/03/29 11:14:37;;;;;;;0.00;0.00;;;;;;;16.43;100.00;99675.95;105785;1260;75018;-80
2024/03/29 11:17:05;;;;;;;0.40;0.40;;;;;;;16.65;100.00;99667.38;105915;1254;61957;-78
2024/03/29 11:19:32;;;;;;;0.20;0.20;;;;;;;16.81;100.00;99666.56;105889;1257;62099;-80
2024/03/29 11:22:00;;;;;;;0.00;0.00;;;;;;;16.96;100.00;99664.10;105898;1254;75538;-78
2024/03/29 11:24:28;;;;;;;0.00;0.00;;;;;;;17.17;100.00;99665.59;105841;1260;69020;-78
2024/03/29 11:26:56;;;;;;;0.30;0.10;;;;;;;17.34;100.00;99667.58;105864;1254;73879;-78
2024/03/29 11:29:24;;;;;;;0.10;0.10;;;;;;;17.41;100.00;99669.39;105942;1257;62274;-77
2024/03/29 11:31:58;;;;;;;0.00;0.00;;;;;;;17.43;100.00;99664.79;106069;1254;62325;-80
2024/03/29 11:34:31;;;;;;;0.20;0.20;;;;;;;17.55;100.00;99666.70;105900;1260;77574;-78